createdAt,value
2018-04-01T00:01:19.987Z,5.70
2018-04-01T00:03:47.548Z,5.60
2018-04-01T00:06:15.021Z,5.60
2018-04-01T00:08:42.438Z,5.60
2018-04-01T00:11:10.558Z,5.50
2018-04-01T00:13:37.994Z,5.50
2018-04-01T00:16:05.292Z,5.50
2018-04-01T00:18:32.896Z,5.50
2018-04-01T00:21:00.235Z,5.50
2018-04-01T00:23:28.458Z,5.40
2018-04-01T00:25:55.860Z,5.40
2018-04-01T00:28:23.269Z,5.40
2018-04-01T00:30:50.757Z,5.30
2018-04-01T00:33:18.316Z,5.20
2018-04-01T00:35:45.832Z,5.10
2018-04-01T00:38:13.148Z,5.10
2018-04-01T00:40:41.421Z,5.00
2018-04-01T00:43:09.483Z,5.00
2018-04-01T00:45:36.772Z,5.00
2018-04-01T00:48:04.068Z,5.00
2018-04-01T00:50:31.581Z,4.90
2018-04-01T00:52:58.867Z,4.90
2018-04-01T00:55:26.147Z,4.90
2018-04-01T00:57:53.497Z,4.90
2018-04-01T01:00:20.878Z,4.90
2018-04-01T01:02:48.260Z,4.90
2018-04-01T01:05:15.707Z,5.00
2018-04-01T01:07:43.777Z,5.00
2018-04-01T01:10:11.821Z,5.00
2018-04-01T01:12:39.160Z,5.00
2018-04-01T01:15:06.492Z,5.10
2018-04-01T01:17:33.753Z,5.10
2018-04-01T01:20:01.105Z,5.10
2018-04-01T01:22:28.475Z,5.10
2018-04-01T01:24:55.738Z,5.10
2018-04-01T01:27:23.080Z,5.10
2018-04-01T01:29:50.460Z,5.10
2018-04-01T01:32:18.479Z,5.10
2018-04-01T01:34:45.849Z,5.10
2018-04-01T01:37:13.152Z,5.10
2018-04-01T01:39:41.232Z,5.10
2018-04-01T01:42:08.647Z,5.10
2018-04-01T01:44:36.718Z,5.00
2018-04-01T01:47:04.007Z,5.00
2018-04-01T01:49:32.072Z,5.10
2018-04-01T01:52:00.235Z,5.10
2018-04-01T01:54:27.565Z,5.00
2018-04-01T01:56:54.949Z,5.00
2018-04-01T01:59:22.243Z,5.00
2018-04-01T02:01:49.625Z,5.00
2018-04-01T02:04:16.953Z,4.90
2018-04-01T02:06:44.271Z,4.90
2018-04-01T02:09:12.357Z,4.90
2018-04-01T02:11:40.502Z,4.80
2018-04-01T02:14:08.557Z,4.90
2018-04-01T02:16:35.845Z,4.80
2018-04-01T02:19:04.000Z,4.90
2018-04-01T02:21:31.275Z,4.80
2018-04-01T02:23:59.418Z,4.90
2018-04-01T02:26:27.384Z,4.90
2018-04-01T02:28:54.656Z,4.90
2018-04-01T02:31:22.040Z,4.90
2018-04-01T02:33:49.459Z,4.90
2018-04-01T02:36:16.724Z,4.90
2018-04-01T02:38:44.075Z,4.90
2018-04-01T02:41:11.439Z,4.90
2018-04-01T02:43:39.481Z,4.90
2018-04-01T02:46:06.756Z,4.90
2018-04-01T02:48:34.098Z,4.90
2018-04-01T02:51:01.462Z,4.90
2018-04-01T02:53:29.518Z,4.90
2018-04-01T02:55:56.887Z,4.90
2018-04-01T02:58:25.032Z,4.90
2018-04-01T03:00:52.319Z,4.90
2018-04-01T03:03:19.727Z,4.90
2018-04-01T03:05:47.034Z,4.90
2018-04-01T03:08:15.113Z,4.80
2018-04-01T03:10:43.229Z,4.80
2018-04-01T03:13:10.571Z,4.80
2018-04-01T03:15:37.893Z,4.80
2018-04-01T03:18:05.281Z,4.80
2018-04-01T03:20:32.562Z,4.80
2018-04-01T03:22:59.956Z,4.80
2018-04-01T03:25:28.117Z,4.80
2018-04-01T03:27:56.153Z,4.70
2018-04-01T03:30:23.559Z,4.70
2018-04-01T03:32:51.700Z,4.70
2018-04-01T03:35:19.016Z,4.70
2018-04-01T03:37:46.312Z,4.70
2018-04-01T03:40:14.208Z,4.70
2018-04-01T03:42:42.308Z,4.80
2018-04-01T03:45:09.618Z,4.70
2018-04-01T03:47:37.008Z,4.80
2018-04-01T03:50:04.296Z,4.70
2018-04-01T03:52:31.549Z,4.70
2018-04-01T03:54:58.910Z,4.70
2018-04-01T03:57:26.258Z,4.70
2018-04-01T03:59:53.545Z,4.70
2018-04-01T04:02:21.033Z,4.80
2018-04-01T04:04:48.391Z,4.70
2018-04-01T04:07:15.826Z,4.70
2018-04-01T04:09:43.168Z,4.60
2018-04-01T04:12:10.442Z,4.60
2018-04-01T04:14:38.533Z,4.60
2018-04-01T04:17:05.875Z,4.60
2018-04-01T04:19:33.926Z,4.60
2018-04-01T04:22:01.982Z,4.60
2018-04-01T04:24:29.401Z,4.60
2018-04-01T04:26:56.759Z,4.60
2018-04-01T04:29:24.089Z,4.60
2018-04-01T04:31:51.454Z,4.60
2018-04-01T04:34:18.773Z,4.70
2018-04-01T04:36:46.800Z,4.70
2018-04-01T04:39:14.172Z,4.60
2018-04-01T04:41:41.515Z,4.70
2018-04-01T04:44:08.800Z,4.60
2018-04-01T04:46:36.259Z,4.70
2018-04-01T04:49:03.574Z,4.60
2018-04-01T04:51:30.846Z,4.70
2018-04-01T04:53:58.194Z,4.60
2018-04-01T04:56:25.505Z,4.60
2018-04-01T04:58:52.825Z,4.60
2018-04-01T05:01:20.997Z,4.70
2018-04-01T05:03:48.265Z,4.70
2018-04-01T05:06:16.347Z,4.70
2018-04-01T05:08:43.734Z,4.70
2018-04-01T05:11:11.057Z,4.80
2018-04-01T05:13:38.422Z,4.80
2018-04-01T05:16:05.778Z,4.80
2018-04-01T05:18:33.205Z,4.90
2018-04-01T05:21:01.300Z,4.90
2018-04-01T05:23:29.459Z,4.90
2018-04-01T05:25:57.588Z,4.90
2018-04-01T05:28:24.905Z,4.80
2018-04-01T05:30:52.317Z,4.80
2018-04-01T05:33:19.598Z,4.80
2018-04-01T05:35:47.758Z,4.80
2018-04-01T05:38:15.182Z,4.80
2018-04-01T05:40:42.462Z,4.90
2018-04-01T05:43:10.565Z,4.90
2018-04-01T05:45:37.939Z,4.80
2018-04-01T05:48:05.232Z,4.90
2018-04-01T05:50:32.536Z,4.90
2018-04-01T05:52:59.885Z,4.90
2018-04-01T05:55:27.254Z,5.00
2018-04-01T05:57:54.546Z,5.00
2018-04-01T06:00:22.029Z,5.00
2018-04-01T06:02:50.158Z,5.00
2018-04-01T06:05:17.496Z,5.00
2018-04-01T06:07:44.957Z,4.90
2018-04-01T06:10:12.307Z,4.90
2018-04-01T06:12:39.638Z,4.90
2018-04-01T06:15:07.056Z,4.90
2018-04-01T06:17:34.317Z,4.90
2018-04-01T06:20:01.617Z,4.90
2018-04-01T06:22:28.992Z,5.00
2018-04-01T06:24:56.355Z,5.00
2018-04-01T06:27:23.753Z,5.10
2018-04-01T06:29:51.168Z,5.20
2018-04-01T06:32:18.450Z,5.30
2018-04-01T06:34:45.817Z,5.30
2018-04-01T06:37:13.991Z,5.40
2018-04-01T06:39:42.064Z,5.50
2018-04-01T06:42:10.127Z,5.50
2018-04-01T06:44:37.511Z,5.50
2018-04-01T06:47:04.796Z,5.50
2018-04-01T06:49:32.087Z,5.50
2018-04-01T06:51:59.428Z,5.50
2018-04-01T06:54:26.775Z,5.60
2018-04-01T06:56:54.081Z,5.70
2018-04-01T06:59:21.544Z,5.70
2018-04-01T07:01:48.862Z,5.80
2018-04-01T07:04:16.160Z,5.80
2018-04-01T07:06:43.567Z,5.80
2018-04-01T07:09:10.946Z,5.80
2018-04-01T07:11:39.014Z,5.80
2018-04-01T07:14:07.212Z,5.80
2018-04-01T07:16:34.573Z,5.80
2018-04-01T07:19:01.982Z,5.80
2018-04-01T07:21:29.407Z,5.90
2018-04-01T07:23:56.743Z,5.90
2018-04-01T07:26:24.105Z,5.90
2018-04-01T07:28:51.554Z,5.90
2018-04-01T07:31:18.840Z,6.10
2018-04-01T07:33:46.177Z,6.10
2018-04-01T07:36:13.573Z,6.10
2018-04-01T07:38:41.712Z,6.30
2018-04-01T07:41:09.011Z,6.20
2018-04-01T07:43:37.110Z,6.40
2018-04-01T07:46:04.419Z,6.40
2018-04-01T07:48:31.670Z,6.40
2018-04-01T07:51:00.038Z,6.50
2018-04-01T07:53:28.154Z,6.50
2018-04-01T07:55:55.539Z,6.50
2018-04-01T07:58:22.951Z,6.60
2018-04-01T08:00:51.263Z,6.60
2018-04-01T08:03:18.553Z,6.60
2018-04-01T08:05:46.070Z,6.60
2018-04-01T08:08:13.434Z,6.70
2018-04-01T08:10:40.816Z,6.70
2018-04-01T08:13:08.158Z,6.80
2018-04-01T08:15:35.514Z,6.90
2018-04-01T08:18:02.850Z,6.90
2018-04-01T08:20:30.306Z,6.90
2018-04-01T08:22:57.716Z,7.00
2018-04-01T08:25:25.060Z,7.10
2018-04-01T08:27:52.452Z,7.20
2018-04-01T08:30:19.796Z,7.20
2018-04-01T08:32:47.253Z,7.10
2018-04-01T08:35:14.601Z,7.20
2018-04-01T08:37:42.780Z,7.30
2018-04-01T08:40:11.090Z,7.40
2018-04-01T08:42:38.521Z,7.40
2018-04-01T08:45:06.641Z,7.40
2018-04-01T08:47:34.087Z,7.40
2018-04-01T08:50:01.478Z,7.40
2018-04-01T08:52:28.826Z,7.50
2018-04-01T08:54:56.520Z,7.50
2018-04-01T08:57:24.022Z,7.50
2018-04-01T08:59:51.408Z,7.50
2018-04-01T09:02:18.756Z,7.50
2018-04-01T09:04:46.213Z,7.50
2018-04-01T09:07:13.555Z,7.60
2018-04-01T09:09:40.928Z,7.60
2018-04-01T09:12:08.287Z,7.80
2018-04-01T09:14:35.722Z,7.90
2018-04-01T09:17:03.034Z,8.10
2018-04-01T09:19:31.445Z,8.30
2018-04-01T09:21:58.761Z,8.50
2018-04-01T09:24:26.173Z,8.60
2018-04-01T09:26:53.586Z,8.80
2018-04-01T09:29:20.943Z,9.00
2018-04-01T09:31:48.219Z,9.10
2018-04-01T09:34:15.622Z,9.20
2018-04-01T09:36:43.006Z,9.30
2018-04-01T09:39:10.260Z,9.50
2018-04-01T09:41:37.690Z,9.60
2018-04-01T09:44:05.784Z,9.90
2018-04-01T09:46:33.255Z,9.90
2018-04-01T09:49:00.636Z,10.00
2018-04-01T09:51:28.795Z,10.30
2018-04-01T09:53:56.081Z,10.30
2018-04-01T09:56:23.560Z,10.40
2018-04-01T09:58:51.889Z,10.80
2018-04-01T10:01:19.914Z,10.80
2018-04-01T10:03:48.786Z,11.20
2018-04-01T10:06:17.553Z,11.50
2018-04-01T10:08:46.291Z,11.70
2018-04-01T10:11:14.284Z,11.60
2018-04-01T10:13:42.284Z,11.90
2018-04-01T10:16:10.207Z,12.00
2018-04-01T10:18:38.191Z,12.30
2018-04-01T10:21:06.246Z,12.40
2018-04-01T10:23:34.196Z,12.60
2018-04-01T10:26:02.842Z,13.00
2018-04-01T10:28:30.763Z,13.00
2018-04-01T10:30:58.838Z,13.20
2018-04-01T10:33:26.898Z,13.40
2018-04-01T10:35:55.558Z,13.80
2018-04-01T10:38:23.501Z,13.80
2018-04-01T10:40:51.466Z,13.90
2018-04-01T10:43:19.390Z,14.00
2018-04-01T10:45:47.324Z,13.90
2018-04-01T10:48:15.225Z,14.00
2018-04-01T10:50:43.888Z,14.30
2018-04-01T10:53:11.859Z,14.30
2018-04-01T10:55:40.089Z,14.50
2018-04-01T10:58:07.487Z,14.50
2018-04-01T11:00:34.740Z,14.50
2018-04-01T11:03:02.147Z,14.60
2018-04-01T11:05:29.417Z,14.70
2018-04-01T11:07:56.791Z,14.70
2018-04-01T11:10:24.165Z,14.80
2018-04-01T11:12:52.234Z,14.90
2018-04-01T11:15:19.657Z,14.80
2018-04-01T11:17:47.054Z,14.80
2018-04-01T11:20:15.138Z,14.70
2018-04-01T11:22:42.538Z,14.70
2018-04-01T11:25:09.976Z,14.80
2018-04-01T11:27:37.313Z,14.90
2018-04-01T11:30:04.589Z,14.90
2018-04-01T11:32:32.034Z,15.00
2018-04-01T11:34:59.413Z,15.10
2018-04-01T11:37:26.803Z,15.30
2018-04-01T11:39:54.979Z,15.60
2018-04-01T11:42:22.282Z,15.50
2018-04-01T11:44:49.633Z,15.40
2018-04-01T11:47:17.053Z,15.10
2018-04-01T11:49:45.137Z,14.80
2018-04-01T11:52:13.364Z,14.90
2018-04-01T11:54:40.792Z,14.90
2018-04-01T11:57:08.127Z,14.80
2018-04-01T11:59:36.255Z,14.60
2018-04-01T12:02:03.593Z,14.60
2018-04-01T12:04:30.960Z,14.50
2018-04-01T12:06:58.279Z,14.40
2018-04-01T12:09:25.597Z,14.50
2018-04-01T12:11:53.645Z,14.60
2018-04-01T12:14:21.129Z,14.60
2018-04-01T12:16:49.216Z,14.80
2018-04-01T12:19:17.291Z,15.00
2018-04-01T12:21:44.648Z,15.00
2018-04-01T12:24:11.989Z,15.10
2018-04-01T12:26:40.205Z,15.40
2018-04-01T12:29:08.357Z,15.70
2018-04-01T12:31:35.663Z,15.70
2018-04-01T12:34:02.997Z,16.00
2018-04-01T12:36:30.293Z,16.00
2018-04-01T12:38:58.444Z,16.00
2018-04-01T12:41:25.712Z,15.90
2018-04-01T12:43:53.077Z,15.80
2018-04-01T12:46:21.234Z,15.90
2018-04-01T12:48:48.549Z,15.90
2018-04-01T12:51:15.893Z,16.10
2018-04-01T12:53:43.270Z,16.30
2018-04-01T12:56:10.563Z,16.30
2018-04-01T12:58:38.643Z,16.20
2018-04-01T13:01:06.679Z,16.20
2018-04-01T13:03:34.041Z,16.20
2018-04-01T13:06:01.296Z,16.10
2018-04-01T13:08:28.621Z,15.80
2018-04-01T13:10:56.003Z,15.70
2018-04-01T13:13:23.320Z,15.60
2018-04-01T13:15:50.650Z,15.50
2018-04-01T13:18:18.105Z,15.40
2018-04-01T13:20:45.374Z,15.20
2018-04-01T13:23:12.640Z,14.90
2018-04-01T13:25:39.954Z,14.80
2018-04-01T13:28:08.032Z,15.10
2018-04-01T13:30:36.101Z,16.00
2018-04-01T13:33:04.180Z,17.10
2018-04-01T13:35:31.538Z,17.10
2018-04-01T13:37:58.895Z,16.90
2018-04-01T13:40:26.264Z,17.60
2018-04-01T13:42:53.612Z,18.90
2018-04-01T13:45:20.937Z,20.10
2018-04-01T13:47:49.113Z,20.60
2018-04-01T13:50:17.285Z,20.10
2018-04-01T13:52:45.544Z,20.00
2018-04-01T13:55:13.260Z,20.00
2018-04-01T13:57:40.605Z,20.80
2018-04-01T14:00:07.921Z,21.50
2018-04-01T14:02:35.453Z,21.90
2018-04-01T14:05:02.805Z,21.30
2018-04-01T14:07:30.127Z,22.00
2018-04-01T14:09:57.573Z,22.70
2018-04-01T14:12:24.888Z,23.80
2018-04-01T14:14:52.322Z,23.30
2018-04-01T14:17:19.746Z,22.30
2018-04-01T14:19:47.178Z,21.30
2018-04-01T14:22:14.675Z,20.00
2018-04-01T14:24:42.110Z,18.80
2018-04-01T14:27:10.211Z,16.90
2018-04-01T14:29:37.542Z,16.80
2018-04-01T14:32:04.902Z,16.50
2018-04-01T14:34:33.156Z,15.50
2018-04-01T14:37:01.193Z,15.50
2018-04-01T14:39:28.639Z,15.50
2018-04-01T14:41:56.479Z,15.60
2018-04-01T14:44:23.867Z,15.70
2018-04-01T14:46:51.248Z,17.20
2018-04-01T14:49:18.576Z,18.30
2018-04-01T14:51:45.908Z,19.80
2018-04-01T14:54:13.303Z,21.00
2018-04-01T14:56:40.619Z,20.30
2018-04-01T14:59:08.031Z,19.20
2018-04-01T15:01:36.156Z,17.10
2018-04-01T15:04:03.466Z,17.00
2018-04-01T15:06:31.628Z,15.90
2018-04-01T15:08:59.024Z,15.90
2018-04-01T15:11:26.334Z,19.10
2018-04-01T15:13:53.689Z,21.20
2018-04-01T15:16:21.037Z,22.10
2018-04-01T15:18:48.302Z,22.70
2018-04-01T15:21:16.399Z,26.10
2018-04-01T15:23:44.564Z,26.70
2018-04-01T15:26:12.676Z,25.70
2018-04-01T15:28:40.043Z,25.70
2018-04-01T15:31:07.455Z,23.80
2018-04-01T15:33:35.548Z,25.60
2018-04-01T15:36:02.862Z,25.50
2018-04-01T15:38:31.021Z,21.70
2018-04-01T15:40:58.304Z,21.60
2018-04-01T15:43:26.386Z,19.50
2018-04-01T15:45:53.784Z,19.40
2018-04-01T15:48:21.109Z,18.10
2018-04-01T15:50:48.444Z,17.20
2018-04-01T15:53:16.638Z,15.90
2018-04-01T15:55:44.009Z,15.80
2018-04-01T15:58:11.354Z,15.60
2018-04-01T16:00:38.753Z,16.50
2018-04-01T16:03:06.056Z,19.10
2018-04-01T16:05:33.372Z,22.20
2018-04-01T16:08:00.933Z,23.70
2018-04-01T16:10:29.034Z,20.30
2018-04-01T16:12:56.323Z,20.20
2018-04-01T16:15:23.695Z,18.70
2018-04-01T16:17:50.992Z,19.30
2018-04-01T16:20:18.287Z,20.30
2018-04-01T16:22:45.733Z,21.20
2018-04-01T16:25:13.399Z,20.10
2018-04-01T16:27:40.764Z,18.80
2018-04-01T16:30:08.283Z,17.50
2018-04-01T16:32:35.609Z,16.70
2018-04-01T16:35:03.694Z,15.40
2018-04-01T16:37:31.812Z,15.00
2018-04-01T16:39:59.109Z,14.90
2018-04-01T16:42:27.164Z,14.30
2018-04-01T16:44:54.553Z,14.30
2018-04-01T16:47:22.701Z,13.90
2018-04-01T16:49:50.062Z,13.90
2018-04-01T16:52:18.165Z,13.60
2018-04-01T16:54:45.584Z,13.60
2018-04-01T16:57:13.655Z,13.30
2018-04-01T16:59:41.051Z,13.30
2018-04-01T17:02:08.364Z,13.10
2018-04-01T17:04:35.711Z,12.90
2018-04-01T17:07:03.081Z,12.90
2018-04-01T17:09:31.181Z,12.60
2018-04-01T17:11:58.600Z,12.50
2018-04-01T17:14:26.026Z,12.50
2018-04-01T17:16:53.373Z,12.30
2018-04-01T17:19:20.901Z,12.10
2018-04-01T17:21:49.106Z,11.80
2018-04-01T17:24:16.407Z,11.80
2018-04-01T17:26:43.736Z,11.70
2018-04-01T17:29:11.147Z,11.60
2018-04-01T17:31:38.596Z,11.40
2018-04-01T17:34:05.879Z,11.30
2018-04-01T17:36:33.282Z,11.00
2018-04-01T17:39:02.067Z,10.70
2018-04-01T17:41:29.340Z,10.70
2018-04-01T17:43:57.479Z,10.60
2018-04-01T17:46:24.817Z,10.60
2018-04-01T17:48:52.118Z,10.60
2018-04-01T17:51:20.254Z,10.40
2018-04-01T17:53:47.617Z,10.40
2018-04-01T17:56:14.942Z,10.30
2018-04-01T17:58:42.337Z,10.30
2018-04-01T18:01:09.797Z,10.20
2018-04-01T18:03:37.191Z,10.20
2018-04-01T18:06:04.518Z,10.10
2018-04-01T18:08:31.966Z,10.00
2018-04-01T18:10:59.219Z,10.00
2018-04-01T18:13:26.559Z,9.90
2018-04-01T18:15:53.941Z,9.80
2018-04-01T18:18:22.038Z,9.50
2018-04-01T18:20:49.489Z,9.50
2018-04-01T18:23:16.781Z,9.40
2018-04-01T18:25:44.139Z,9.30
2018-04-01T18:28:11.554Z,9.20
2018-04-01T18:30:38.924Z,9.10
2018-04-01T18:33:06.276Z,9.00
2018-04-01T18:35:33.767Z,9.00
2018-04-01T18:38:01.089Z,8.90
2018-04-01T18:40:28.438Z,8.80
2018-04-01T18:42:55.797Z,8.60
2018-04-01T18:45:23.132Z,8.40
2018-04-01T18:47:51.203Z,8.30
2018-04-01T18:50:19.352Z,8.30
2018-04-01T18:52:46.707Z,8.30
2018-04-01T18:55:16.077Z,8.10
2018-04-01T18:57:43.465Z,8.10
2018-04-01T19:00:11.526Z,7.90
2018-04-01T19:02:38.816Z,7.90
2018-04-01T19:05:06.698Z,7.90
2018-04-01T19:07:34.446Z,7.80
2018-04-01T19:10:02.848Z,7.50
2018-04-01T19:12:30.320Z,7.50
2018-04-01T19:14:57.635Z,7.30
2018-04-01T19:17:25.586Z,7.20
2018-04-01T19:19:53.486Z,7.00
2018-04-01T19:22:21.419Z,7.00
2018-04-01T19:24:50.100Z,7.10
2018-04-01T19:27:18.547Z,7.00
2018-04-01T19:29:46.489Z,7.00
2018-04-01T19:32:14.453Z,7.10
2018-04-01T19:34:43.169Z,7.10
2018-04-01T19:37:12.200Z,7.00
2018-04-01T19:39:40.097Z,7.10
2018-04-01T19:42:08.969Z,7.00
2018-04-01T19:44:37.590Z,6.90
2018-04-01T19:47:05.458Z,6.90
2018-04-01T19:49:33.592Z,6.90
2018-04-01T19:52:02.176Z,7.00
2018-04-01T19:54:30.150Z,6.90
2018-04-01T19:56:58.111Z,6.90
2018-04-01T19:59:26.364Z,6.80
2018-04-01T20:01:54.244Z,6.70
2018-04-01T20:04:22.162Z,6.60
2018-04-01T20:06:50.082Z,6.50
2018-04-01T20:09:17.923Z,6.50
2018-04-01T20:11:45.894Z,6.50
2018-04-01T20:14:13.739Z,6.40
2018-04-01T20:16:41.598Z,6.40
2018-04-01T20:19:09.837Z,6.40
2018-04-01T20:21:37.699Z,6.50
2018-04-01T20:24:05.558Z,6.40
2018-04-01T20:26:33.580Z,6.40
2018-04-01T20:29:01.407Z,6.30
2018-04-01T20:31:29.304Z,6.30
2018-04-01T20:33:57.154Z,6.40
2018-04-01T20:38:59.241Z,6.40
2018-04-01T20:41:27.193Z,6.50
2018-04-01T20:43:55.851Z,6.40
2018-04-01T20:46:23.816Z,6.40
2018-04-01T20:48:51.711Z,6.40
2018-04-01T20:51:19.565Z,6.40
2018-04-01T20:53:48.036Z,6.30
2018-04-01T20:56:15.818Z,6.30
2018-04-01T20:58:43.696Z,6.30
2018-04-01T21:01:12.414Z,6.20
2018-04-01T21:03:40.365Z,6.20
2018-04-01T21:06:08.959Z,6.10
2018-04-01T21:08:36.840Z,6.10
2018-04-01T21:11:04.697Z,6.20
2018-04-01T21:13:32.561Z,6.20
2018-04-01T21:16:00.489Z,6.10
2018-04-01T21:18:28.380Z,6.10
2018-04-01T21:20:56.942Z,6.00
2018-04-01T21:23:24.897Z,6.00
2018-04-01T21:25:52.848Z,6.00
2018-04-01T21:28:20.631Z,6.00
2018-04-01T21:30:48.717Z,6.00
2018-04-01T21:33:16.586Z,6.00
2018-04-01T21:35:44.478Z,5.90
2018-04-01T21:38:12.416Z,5.90
2018-04-01T21:40:40.250Z,5.90
2018-04-01T21:43:08.094Z,5.90
2018-04-01T21:45:35.993Z,5.90
2018-04-01T21:48:03.858Z,5.90
2018-04-01T21:50:31.708Z,5.80
2018-04-01T21:52:59.689Z,5.80
2018-04-01T21:55:27.598Z,5.80
2018-04-01T21:57:55.533Z,5.70
2018-04-01T22:00:23.413Z,5.70
2018-04-01T22:02:51.287Z,5.70
2018-04-01T22:05:19.174Z,5.70
2018-04-01T22:07:47.876Z,5.60
2018-04-01T22:10:16.559Z,5.50
2018-04-01T22:12:45.159Z,5.50
2018-04-01T22:15:13.080Z,5.40
2018-04-01T22:17:40.968Z,5.40
2018-04-01T22:20:09.611Z,5.30
2018-04-01T22:25:38.049Z,5.10
2018-04-01T22:28:06.744Z,5.00
2018-04-01T22:30:35.614Z,5.00
2018-04-01T22:33:03.499Z,5.00
2018-04-01T22:35:32.204Z,5.00
2018-04-01T22:37:59.978Z,5.00
2018-04-01T22:40:27.785Z,5.00
2018-04-01T22:42:55.704Z,5.00
2018-04-01T22:45:23.636Z,5.00
2018-04-01T22:47:51.621Z,5.00
2018-04-01T22:50:20.414Z,5.00
2018-04-01T22:52:48.990Z,5.10
2018-04-01T22:55:17.581Z,5.10
2018-04-01T22:57:46.259Z,5.10
2018-04-01T23:00:15.642Z,5.10
2018-04-01T23:02:43.519Z,5.10
2018-04-01T23:05:12.266Z,5.10
2018-04-01T23:07:40.172Z,5.10
2018-04-01T23:10:08.063Z,5.10
2018-04-01T23:12:36.690Z,5.00
2018-04-01T23:15:04.580Z,5.00
2018-04-01T23:17:32.400Z,5.00
2018-04-01T23:20:00.346Z,5.00
2018-04-01T23:22:28.937Z,5.00
2018-04-01T23:24:57.539Z,5.00
2018-04-01T23:27:25.451Z,5.00
2018-04-01T23:29:53.338Z,5.00
2018-04-01T23:32:21.952Z,4.90
2018-04-01T23:34:49.920Z,4.80
2018-04-01T23:37:17.849Z,4.80
2018-04-01T23:39:45.747Z,4.80
2018-04-01T23:42:14.415Z,4.80
2018-04-01T23:44:42.981Z,4.80
2018-04-01T23:47:10.921Z,4.80
2018-04-01T23:49:38.812Z,4.80
2018-04-01T23:52:06.632Z,4.70
2018-04-01T23:54:34.552Z,4.70
2018-04-01T23:57:02.494Z,4.60
2018-04-01T23:59:30.392Z,4.60
